Archival Weather

Chicago O'Hare International

Chicago, Illinois (KORD)

Report from: Sunday, November 19, 2023 11:51 PM CST
Current time: Friday, February 23, 2024 3:17 PM CST

Current weather – Weather history – Daily summaries
Weather forecast

Temperature7.8°C (46.0°F)
Wind chill5.8°C (42.5°F)
Dew point2.8°C (37.0°F)
Winds 6 kts (3.1 m/s, 6.9 mph) East (80°)
Visibility10 mi. (16.1 km)
Clouds Ceiling: Broken clouds 18,000 ft. (5,486 m)
Broken clouds 25,000 ft. (7,620 m)
Altimeter30.09 in.Hg (1019 mB)
Relative humidity71 %
Density altitude-956 ft. (-291 m)
Sea-level pressure101.9 kPa (1019 mB, 30.10 in.Hg)
Max temp last 6 hours8.3°C (46.9°F)
Min temp last 6 hours6.7°C (44.1°F)
Max temp last 24 hours12.2°C (54.0°F)
Min temp last 24 hours1.7°C (35.1°F)
Remarks Automated weather observing station with precipitation discriminator
Pressure falling, then rising
Flight conditions Visual Meteorological Conditions
Raw dataKORD 200551Z 08006KT 10SM BKN180 BKN250 08/03 A3009 RMK AO2 SLP192 T00780028 10083 20067 401220017 55000
An error has occurred. This application may no longer respond until reloaded. Reload 🗙